sensor_id;sensor_type;location;lat;lon;timestamp;pressure;altitude;pressure_sealevel;temperature;humidity
64792;BME280;51226;47.504;19.074;2023-04-03T00:02:27;100162.66;;;9.68;51.67
64792;BME280;51226;47.504;19.074;2023-04-03T00:05:30;100154.34;;;9.78;50.85
64792;BME280;51226;47.504;19.074;2023-04-03T00:08:32;100162.81;;;9.72;51.27
64792;BME280;51226;47.504;19.074;2023-04-03T00:11:35;100160.78;;;9.65;51.17
64792;BME280;51226;47.504;19.074;2023-04-03T00:14:38;100156.53;;;9.67;51.06
64792;BME280;51226;47.504;19.074;2023-04-03T00:17:41;100158.19;;;9.65;51.38
64792;BME280;51226;47.504;19.074;2023-04-03T00:20:44;100161.66;;;9.64;51.00
64792;BME280;51226;47.504;19.074;2023-04-03T00:23:47;100161.75;;;9.67;51.11
64792;BME280;51226;47.504;19.074;2023-04-03T00:26:50;100164.00;;;9.58;51.56
64792;BME280;51226;47.504;19.074;2023-04-03T00:29:53;100160.84;;;9.67;50.77
64792;BME280;51226;47.504;19.074;2023-04-03T00:32:55;100161.34;;;9.56;50.97
64792;BME280;51226;47.504;19.074;2023-04-03T00:35:59;100171.81;;;9.58;51.20
64792;BME280;51226;47.504;19.074;2023-04-03T00:39:02;100170.03;;;9.57;51.27
64792;BME280;51226;47.504;19.074;2023-04-03T00:42:06;100168.22;;;9.54;51.20
64792;BME280;51226;47.504;19.074;2023-04-03T00:45:25;100174.78;;;9.44;51.53
64792;BME280;51226;47.504;19.074;2023-04-03T00:48:46;100170.81;;;9.54;50.80
64792;BME280;51226;47.504;19.074;2023-04-03T00:51:50;100177.97;;;9.37;51.74
64792;BME280;51226;47.504;19.074;2023-04-03T00:54:56;100176.94;;;9.34;51.92
64792;BME280;51226;47.504;19.074;2023-04-03T00:58:00;100181.59;;;9.41;51.52
64792;BME280;51226;47.504;19.074;2023-04-03T01:01:07;100182.47;;;9.41;51.41
64792;BME280;51226;47.504;19.074;2023-04-03T01:04:29;100178.31;;;9.46;50.97
64792;BME280;51226;47.504;19.074;2023-04-03T01:07:32;100176.44;;;9.42;51.76
64792;BME280;51226;47.504;19.074;2023-04-03T01:10:36;100179.59;;;9.35;52.19
64792;BME280;51226;47.504;19.074;2023-04-03T01:13:40;100182.34;;;9.38;52.36
64792;BME280;51226;47.504;19.074;2023-04-03T01:16:52;100183.19;;;9.37;51.86
64792;BME280;51226;47.504;19.074;2023-04-03T01:23:37;100181.38;;;9.36;51.96
64792;BME280;51226;47.504;19.074;2023-04-03T01:26:43;100174.41;;;9.35;51.70
64792;BME280;51226;47.504;19.074;2023-04-03T01:29:47;100179.59;;;9.35;50.55
64792;BME280;51226;47.504;19.074;2023-04-03T01:32:50;100167.56;;;9.37;50.75
64792;BME280;51226;47.504;19.074;2023-04-03T01:35:53;100181.38;;;9.36;50.46
64792;BME280;51226;47.504;19.074;2023-04-03T01:38:58;100176.66;;;9.26;50.95
64792;BME280;51226;47.504;19.074;2023-04-03T01:42:02;100180.72;;;9.19;50.83
64792;BME280;51226;47.504;19.074;2023-04-03T01:45:07;100181.66;;;9.21;50.55
64792;BME280;51226;47.504;19.074;2023-04-03T01:48:10;100176.13;;;9.12;50.67
64792;BME280;51226;47.504;19.074;2023-04-03T01:51:13;100184.59;;;9.08;50.33
64792;BME280;51226;47.504;19.074;2023-04-03T01:54:16;100189.00;;;9.09;50.32
64792;BME280;51226;47.504;19.074;2023-04-03T01:57:20;100186.31;;;9.07;49.86
64792;BME280;51226;47.504;19.074;2023-04-03T02:00:23;100199.25;;;9.06;50.42
64792;BME280;51226;47.504;19.074;2023-04-03T02:03:26;100194.06;;;9.06;50.40
64792;BME280;51226;47.504;19.074;2023-04-03T02:06:29;100184.28;;;9.00;50.09
64792;BME280;51226;47.504;19.074;2023-04-03T02:09:32;100190.53;;;9.04;49.61
64792;BME280;51226;47.504;19.074;2023-04-03T02:12:35;100192.06;;;9.00;49.94
64792;BME280;51226;47.504;19.074;2023-04-03T02:15:38;100197.59;;;9.08;48.90
64792;BME280;51226;47.504;19.074;2023-04-03T02:18:42;100195.53;;;8.99;49.23
64792;BME280;51226;47.504;19.074;2023-04-03T02:21:45;100206.94;;;9.03;49.18
64792;BME280;51226;47.504;19.074;2023-04-03T02:24:50;100199.84;;;8.99;48.27
64792;BME280;51226;47.504;19.074;2023-04-03T02:27:55;100204.84;;;8.94;49.10
64792;BME280;51226;47.504;19.074;2023-04-03T02:30:58;100207.69;;;8.79;50.30
64792;BME280;51226;47.504;19.074;2023-04-03T02:34:01;100206.03;;;8.81;49.79
64792;BME280;51226;47.504;19.074;2023-04-03T02:37:04;100207.44;;;8.73;50.65
64792;BME280;51226;47.504;19.074;2023-04-03T02:40:08;100204.75;;;8.71;50.14
64792;BME280;51226;47.504;19.074;2023-04-03T02:43:11;100210.75;;;8.69;50.58
64792;BME280;51226;47.504;19.074;2023-04-03T02:46:14;100201.84;;;8.64;50.43
64792;BME280;51226;47.504;19.074;2023-04-03T02:49:18;100200.06;;;8.63;50.36
64792;BME280;51226;47.504;19.074;2023-04-03T02:52:21;100203.09;;;8.74;49.67
64792;BME280;51226;47.504;19.074;2023-04-03T02:55:25;100212.63;;;8.73;49.88
64792;BME280;51226;47.504;19.074;2023-04-03T02:58:29;100208.59;;;8.60;50.13
64792;BME280;51226;47.504;19.074;2023-04-03T03:01:33;100210.03;;;8.52;50.63
64792;BME280;51226;47.504;19.074;2023-04-03T03:04:35;100213.81;;;8.60;49.58
64792;BME280;51226;47.504;19.074;2023-04-03T03:07:38;100206.44;;;8.50;50.06
64792;BME280;51226;47.504;19.074;2023-04-03T03:10:41;100207.06;;;8.44;49.92
64792;BME280;51226;47.504;19.074;2023-04-03T03:13:44;100207.94;;;8.45;49.68
64792;BME280;51226;47.504;19.074;2023-04-03T03:16:47;100210.94;;;8.34;51.07
64792;BME280;51226;47.504;19.074;2023-04-03T03:19:50;100215.19;;;8.32;50.77
64792;BME280;51226;47.504;19.074;2023-04-03T03:22:53;100208.34;;;8.34;49.90
64792;BME280;51226;47.504;19.074;2023-04-03T03:25:59;100218.47;;;8.28;50.24
64792;BME280;51226;47.504;19.074;2023-04-03T03:29:02;100211.16;;;8.20;51.02
64792;BME280;51226;47.504;19.074;2023-04-03T03:32:05;100213.75;;;8.20;51.24
64792;BME280;51226;47.504;19.074;2023-04-03T03:35:08;100215.69;;;8.24;50.30
64792;BME280;51226;47.504;19.074;2023-04-03T03:38:11;100218.22;;;8.22;50.48
64792;BME280;51226;47.504;19.074;2023-04-03T03:41:14;100225.50;;;8.11;51.62
64792;BME280;51226;47.504;19.074;2023-04-03T03:44:17;100220.31;;;8.11;51.28
64792;BME280;51226;47.504;19.074;2023-04-03T03:47:20;100219.34;;;8.09;51.28
64792;BME280;51226;47.504;19.074;2023-04-03T03:50:23;100216.19;;;8.16;50.85
64792;BME280;51226;47.504;19.074;2023-04-03T03:53:25;100224.47;;;8.08;51.18
64792;BME280;51226;47.504;19.074;2023-04-03T03:56:29;100228.31;;;8.16;50.81
64792;BME280;51226;47.504;19.074;2023-04-03T03:59:32;100223.59;;;8.07;51.01
64792;BME280;51226;47.504;19.074;2023-04-03T04:02:35;100226.41;;;8.12;51.19
64792;BME280;51226;47.504;19.074;2023-04-03T04:05:39;100222.12;;;7.94;52.15
64792;BME280;51226;47.504;19.074;2023-04-03T04:08:42;100227.19;;;7.91;51.94
64792;BME280;51226;47.504;19.074;2023-04-03T04:11:45;100228.69;;;7.86;52.32
64792;BME280;51226;47.504;19.074;2023-04-03T04:14:48;100223.63;;;7.89;51.48
64792;BME280;51226;47.504;19.074;2023-04-03T04:17:52;100225.00;;;7.81;52.21
64792;BME280;51226;47.504;19.074;2023-04-03T04:20:56;100227.03;;;7.88;51.63
64792;BME280;51226;47.504;19.074;2023-04-03T04:24:00;100230.34;;;7.84;51.72
64792;BME280;51226;47.504;19.074;2023-04-03T04:27:03;100228.28;;;7.77;51.82
64792;BME280;51226;47.504;19.074;2023-04-03T04:30:07;100234.88;;;7.70;52.15
64792;BME280;51226;47.504;19.074;2023-04-03T04:33:10;100237.47;;;7.70;51.65
64792;BME280;51226;47.504;19.074;2023-04-03T04:36:14;100236.16;;;7.60;52.83
64792;BME280;51226;47.504;19.074;2023-04-03T04:39:17;100236.09;;;7.59;52.69
64792;BME280;51226;47.504;19.074;2023-04-03T04:42:21;100239.72;;;7.63;52.97
64792;BME280;51226;47.504;19.074;2023-04-03T04:45:24;100246.69;;;7.64;53.48
64792;BME280;51226;47.504;19.074;2023-04-03T04:48:27;100252.53;;;7.59;53.38
64792;BME280;51226;47.504;19.074;2023-04-03T04:51:32;100250.66;;;7.75;51.86
64792;BME280;51226;47.504;19.074;2023-04-03T04:54:46;100246.44;;;7.77;51.67
64792;BME280;51226;47.504;19.074;2023-04-03T04:57:50;100255.44;;;7.66;52.80
64792;BME280;51226;47.504;19.074;2023-04-03T05:01:00;100247.34;;;7.59;52.57
64792;BME280;51226;47.504;19.074;2023-04-03T05:04:03;100254.31;;;7.60;53.20
64792;BME280;51226;47.504;19.074;2023-04-03T05:07:06;100258.03;;;7.66;52.62
64792;BME280;51226;47.504;19.074;2023-04-03T05:10:10;100258.03;;;7.66;52.96
64792;BME280;51226;47.504;19.074;2023-04-03T05:13:14;100260.84;;;7.70;52.24
64792;BME280;51226;47.504;19.074;2023-04-03T05:16:17;100262.69;;;7.73;52.41
64792;BME280;51226;47.504;19.074;2023-04-03T05:19:21;100261.56;;;7.68;52.29
64792;BME280;51226;47.504;19.074;2023-04-03T05:22:26;100262.84;;;7.76;52.08
64792;BME280;51226;47.504;19.074;2023-04-03T05:25:29;100268.03;;;7.76;52.77
64792;BME280;51226;47.504;19.074;2023-04-03T05:28:33;100274.53;;;7.86;52.55
64792;BME280;51226;47.504;19.074;2023-04-03T05:31:36;100272.16;;;7.90;51.97
64792;BME280;51226;47.504;19.074;2023-04-03T05:34:40;100268.34;;;8.02;51.44
64792;BME280;51226;47.504;19.074;2023-04-03T05:37:43;100266.91;;;7.89;52.29
64792;BME280;51226;47.504;19.074;2023-04-03T05:40:46;100269.97;;;8.00;51.99
64792;BME280;51226;47.504;19.074;2023-04-03T05:43:49;100273.19;;;7.94;52.26
64792;BME280;51226;47.504;19.074;2023-04-03T05:46:54;100271.63;;;7.97;52.25
64792;BME280;51226;47.504;19.074;2023-04-03T05:49:57;100264.19;;;8.05;52.12
64792;BME280;51226;47.504;19.074;2023-04-03T05:53:02;100265.16;;;8.07;52.47
64792;BME280;51226;47.504;19.074;2023-04-03T05:56:06;100272.75;;;8.22;51.48
64792;BME280;51226;47.504;19.074;2023-04-03T05:59:10;100270.16;;;8.22;51.24
64792;BME280;51226;47.504;19.074;2023-04-03T06:02:17;100274.00;;;8.30;50.55
64792;BME280;51226;47.504;19.074;2023-04-03T06:05:22;100267.75;;;8.27;51.11
64792;BME280;51226;47.504;19.074;2023-04-03T06:08:25;100267.97;;;8.31;51.72
64792;BME280;51226;47.504;19.074;2023-04-03T06:11:28;100282.50;;;8.46;51.37
64792;BME280;51226;47.504;19.074;2023-04-03T06:14:30;100278.00;;;8.61;49.99
64792;BME280;51226;47.504;19.074;2023-04-03T06:17:34;100286.94;;;8.68;49.88
64792;BME280;51226;47.504;19.074;2023-04-03T06:20:36;100282.34;;;8.82;49.62
64792;BME280;51226;47.504;19.074;2023-04-03T06:23:40;100283.31;;;8.84;49.42
64792;BME280;51226;47.504;19.074;2023-04-03T06:26:43;100292.44;;;8.95;49.39
64792;BME280;51226;47.504;19.074;2023-04-03T06:29:47;100290.38;;;9.07;49.11
64792;BME280;51226;47.504;19.074;2023-04-03T06:32:51;100292.69;;;9.21;48.88
64792;BME280;51226;47.504;19.074;2023-04-03T06:35:58;100280.38;;;9.38;48.19
64792;BME280;51226;47.504;19.074;2023-04-03T06:39:01;100283.06;;;9.62;47.23
64792;BME280;51226;47.504;19.074;2023-04-03T06:42:05;100290.38;;;9.71;47.49
64792;BME280;51226;47.504;19.074;2023-04-03T06:45:09;100296.44;;;9.92;47.96
64792;BME280;51226;47.504;19.074;2023-04-03T06:48:14;100299.25;;;10.21;45.86
64792;BME280;51226;47.504;19.074;2023-04-03T06:54:25;100308.06;;;10.25;47.25
64792;BME280;51226;47.504;19.074;2023-04-03T06:57:27;100305.72;;;10.31;46.31
64792;BME280;51226;47.504;19.074;2023-04-03T07:00:31;100309.25;;;10.55;44.46
64792;BME280;51226;47.504;19.074;2023-04-03T07:03:33;100311.75;;;10.52;45.03
64792;BME280;51226;47.504;19.074;2023-04-03T07:06:37;100314.25;;;10.73;44.14
64792;BME280;51226;47.504;19.074;2023-04-03T07:09:40;100321.31;;;10.76;44.15
64792;BME280;51226;47.504;19.074;2023-04-03T07:12:45;100325.09;;;10.86;43.43
64792;BME280;51226;47.504;19.074;2023-04-03T07:15:48;100322.50;;;10.86;44.00
64792;BME280;51226;47.504;19.074;2023-04-03T07:18:51;100326.94;;;10.88;42.67
64792;BME280;51226;47.504;19.074;2023-04-03T07:21:54;100326.94;;;10.88;42.60
64792;BME280;51226;47.504;19.074;2023-04-03T07:24:57;100335.00;;;10.94;42.16
64792;BME280;51226;47.504;19.074;2023-04-03T07:28:01;100328.19;;;10.98;41.86
64792;BME280;51226;47.504;19.074;2023-04-03T07:31:05;100325.94;;;11.09;42.11
64792;BME280;51226;47.504;19.074;2023-04-03T07:34:11;100327.09;;;11.17;41.35
64792;BME280;51226;47.504;19.074;2023-04-03T07:37:14;100336.00;;;11.24;41.33
64792;BME280;51226;47.504;19.074;2023-04-03T07:40:17;100331.94;;;11.32;41.04
64792;BME280;51226;47.504;19.074;2023-04-03T07:43:21;100331.31;;;11.39;40.87
64792;BME280;51226;47.504;19.074;2023-04-03T07:46:24;100339.47;;;11.23;41.31
64792;BME280;51226;47.504;19.074;2023-04-03T07:49:27;100330.78;;;11.24;40.90
64792;BME280;51226;47.504;19.074;2023-04-03T07:52:30;100338.78;;;11.28;40.53
64792;BME280;51226;47.504;19.074;2023-04-03T07:55:34;100341.28;;;11.25;40.59
64792;BME280;51226;47.504;19.074;2023-04-03T07:58:40;100347.78;;;11.12;43.48
64792;BME280;51226;47.504;19.074;2023-04-03T08:01:43;100353.53;;;11.26;41.09
64792;BME280;51226;47.504;19.074;2023-04-03T08:04:46;100339.88;;;11.35;40.92
64792;BME280;51226;47.504;19.074;2023-04-03T08:07:49;100344.84;;;11.27;41.73
64792;BME280;51226;47.504;19.074;2023-04-03T08:10:53;100343.53;;;11.40;42.00
64792;BME280;51226;47.504;19.074;2023-04-03T08:13:56;100351.44;;;11.42;40.91
64792;BME280;51226;47.504;19.074;2023-04-03T08:17:00;100353.72;;;11.58;39.86
64792;BME280;51226;47.504;19.074;2023-04-03T08:20:07;100348.66;;;11.63;40.69
64792;BME280;51226;47.504;19.074;2023-04-03T08:23:10;100353.13;;;11.67;40.52
64792;BME280;51226;47.504;19.074;2023-04-03T08:26:16;100348.06;;;11.72;39.91
64792;BME280;51226;47.504;19.074;2023-04-03T08:29:19;100350.13;;;11.82;39.17
64792;BME280;51226;47.504;19.074;2023-04-03T08:32:24;100351.50;;;11.96;39.24
64792;BME280;51226;47.504;19.074;2023-04-03T08:35:27;100352.91;;;11.86;40.13
64792;BME280;51226;47.504;19.074;2023-04-03T08:38:30;100355.97;;;12.00;39.28
64792;BME280;51226;47.504;19.074;2023-04-03T08:41:34;100350.19;;;12.11;38.55
64792;BME280;51226;47.504;19.074;2023-04-03T08:44:48;100349.47;;;12.15;38.66
64792;BME280;51226;47.504;19.074;2023-04-03T08:48:13;100354.12;;;12.25;38.68
64792;BME280;51226;47.504;19.074;2023-04-03T08:51:19;100355.09;;;12.57;37.56
64792;BME280;51226;47.504;19.074;2023-04-03T08:54:30;100350.16;;;12.98;37.09
64792;BME280;51226;47.504;19.074;2023-04-03T08:57:38;100345.44;;;13.50;35.61
64792;BME280;51226;47.504;19.074;2023-04-03T09:00:58;100349.34;;;14.04;34.48
64792;BME280;51226;47.504;19.074;2023-04-03T09:04:10;100348.09;;;14.64;35.70
64792;BME280;51226;47.504;19.074;2023-04-03T09:07:22;100340.28;;;16.17;31.71
64792;BME280;51226;47.504;19.074;2023-04-03T09:10:32;100336.72;;;17.65;29.06
64792;BME280;51226;47.504;19.074;2023-04-03T09:13:48;100333.97;;;18.97;27.01
64792;BME280;51226;47.504;19.074;2023-04-03T09:16:58;100345.56;;;19.90;25.37
64792;BME280;51226;47.504;19.074;2023-04-03T09:20:17;100340.97;;;20.74;24.86
64792;BME280;51226;47.504;19.074;2023-04-03T09:23:28;100339.22;;;20.65;24.43
64792;BME280;51226;47.504;19.074;2023-04-03T09:26:48;100347.31;;;20.11;25.49
64792;BME280;51226;47.504;19.074;2023-04-03T09:29:55;100345.53;;;19.36;25.71
64792;BME280;51226;47.504;19.074;2023-04-03T09:32:58;100353.31;;;18.85;26.43
64792;BME280;51226;47.504;19.074;2023-04-03T09:36:01;100354.75;;;18.22;27.65
64792;BME280;51226;47.504;19.074;2023-04-03T09:39:05;100358.03;;;17.88;27.65
64792;BME280;51226;47.504;19.074;2023-04-03T09:42:22;100353.13;;;17.35;28.84
64792;BME280;51226;47.504;19.074;2023-04-03T09:45:33;100351.91;;;17.02;28.62
64792;BME280;51226;47.504;19.074;2023-04-03T09:48:37;100347.91;;;16.61;28.71
64792;BME280;51226;47.504;19.074;2023-04-03T09:51:40;100340.66;;;16.45;30.78
64792;BME280;51226;47.504;19.074;2023-04-03T09:54:43;100346.03;;;16.53;31.29
64792;BME280;51226;47.504;19.074;2023-04-03T09:57:46;100343.25;;;17.11;29.82
64792;BME280;51226;47.504;19.074;2023-04-03T10:00:57;100333.97;;;18.90;27.97
64792;BME280;51226;47.504;19.074;2023-04-03T10:04:18;100321.75;;;19.98;25.30
64792;BME280;51226;47.504;19.074;2023-04-03T10:07:34;100323.44;;;19.10;25.53
64792;BME280;51226;47.504;19.074;2023-04-03T10:10:38;100338.09;;;18.33;27.15
64792;BME280;51226;47.504;19.074;2023-04-03T10:13:57;100332.13;;;17.46;27.85
64792;BME280;51226;47.504;19.074;2023-04-03T10:23:45;100341.66;;;15.42;31.18
64792;BME280;51226;47.504;19.074;2023-04-03T10:37:11;100346.41;;;13.90;33.01
64792;BME280;51226;47.504;19.074;2023-04-03T10:46:49;100339.22;;;13.13;35.15
64792;BME280;51226;47.504;19.074;2023-04-03T10:50:35;100342.44;;;13.03;36.71
64792;BME280;51226;47.504;19.074;2023-04-03T10:57:22;100337.03;;;12.97;36.15
64792;BME280;51226;47.504;19.074;2023-04-03T11:00:41;100336.66;;;12.83;35.63
64792;BME280;51226;47.504;19.074;2023-04-03T11:03:49;100342.75;;;12.84;37.28
64792;BME280;51226;47.504;19.074;2023-04-03T11:11:00;100344.00;;;12.66;36.19
64792;BME280;51226;47.504;19.074;2023-04-03T11:13:53;100340.53;;;12.67;36.91
64792;BME280;51226;47.504;19.074;2023-04-03T11:20:29;100324.03;;;13.00;33.11
64792;BME280;51226;47.504;19.074;2023-04-03T11:23:38;100332.88;;;12.73;34.55
64792;BME280;51226;47.504;19.074;2023-04-03T11:26:53;100322.59;;;12.81;34.85
64792;BME280;51226;47.504;19.074;2023-04-03T11:29:57;100318.25;;;12.80;37.17
64792;BME280;51226;47.504;19.074;2023-04-03T11:36:45;100312.06;;;13.10;34.49
64792;BME280;51226;47.504;19.074;2023-04-03T11:40:04;100314.03;;;13.19;36.04
64792;BME280;51226;47.504;19.074;2023-04-03T11:43:22;100305.56;;;13.29;33.30
64792;BME280;51226;47.504;19.074;2023-04-03T11:46:49;100301.78;;;13.18;33.94
64792;BME280;51226;47.504;19.074;2023-04-03T11:50:05;100300.97;;;13.20;34.12
64792;BME280;51226;47.504;19.074;2023-04-03T11:59:37;100304.81;;;13.33;34.62
64792;BME280;51226;47.504;19.074;2023-04-03T12:02:40;100309.59;;;13.16;36.72
64792;BME280;51226;47.504;19.074;2023-04-03T12:12:55;100306.69;;;13.05;34.47
64792;BME280;51226;47.504;19.074;2023-04-03T12:16:00;100300.84;;;13.15;33.67
64792;BME280;51226;47.504;19.074;2023-04-03T12:22:23;100291.16;;;12.78;36.00
64792;BME280;51226;47.504;19.074;2023-04-03T12:26:03;100295.38;;;12.74;34.40
64792;BME280;51226;47.504;19.074;2023-04-03T12:39:25;100293.00;;;12.82;34.83
64792;BME280;51226;47.504;19.074;2023-04-03T12:55:57;100287.47;;;13.37;33.59
64792;BME280;51226;47.504;19.074;2023-04-03T12:59:25;100283.84;;;13.33;33.70
64792;BME280;51226;47.504;19.074;2023-04-03T13:02:30;100279.03;;;13.48;34.47
64792;BME280;51226;47.504;19.074;2023-04-03T13:05:34;100267.75;;;13.52;33.37
64792;BME280;51226;47.504;19.074;2023-04-03T13:08:48;100269.47;;;13.50;35.00
64792;BME280;51226;47.504;19.074;2023-04-03T13:12:01;100268.63;;;13.53;33.28
64792;BME280;51226;47.504;19.074;2023-04-03T13:15:29;100262.94;;;13.71;32.87
64792;BME280;51226;47.504;19.074;2023-04-03T13:18:35;100261.94;;;13.66;33.07
64792;BME280;51226;47.504;19.074;2023-04-03T13:21:37;100254.88;;;13.62;33.60
64792;BME280;51226;47.504;19.074;2023-04-03T13:24:40;100261.91;;;13.64;33.60
64792;BME280;51226;47.504;19.074;2023-04-03T13:27:43;100252.75;;;13.83;32.91
64792;BME280;51226;47.504;19.074;2023-04-03T13:31:03;100246.97;;;13.98;32.16
64792;BME280;51226;47.504;19.074;2023-04-03T13:34:17;100253.09;;;13.99;32.37
64792;BME280;51226;47.504;19.074;2023-04-03T13:37:33;100248.34;;;13.82;33.04
64792;BME280;51226;47.504;19.074;2023-04-03T13:40:51;100239.94;;;13.97;32.08
64792;BME280;51226;47.504;19.074;2023-04-03T13:43:55;100243.28;;;13.90;34.62
64792;BME280;51226;47.504;19.074;2023-04-03T13:47:17;100243.41;;;13.96;32.53
64792;BME280;51226;47.504;19.074;2023-04-03T13:50:23;100246.38;;;14.13;32.41
64792;BME280;51226;47.504;19.074;2023-04-03T13:53:30;100240.22;;;14.11;31.71
64792;BME280;51226;47.504;19.074;2023-04-03T13:56:35;100231.34;;;14.04;32.12
64792;BME280;51226;47.504;19.074;2023-04-03T13:59:44;100233.91;;;14.01;32.29
64792;BME280;51226;47.504;19.074;2023-04-03T14:02:48;100232.25;;;14.05;32.92
64792;BME280;51226;47.504;19.074;2023-04-03T14:05:51;100223.41;;;14.01;35.49
64792;BME280;51226;47.504;19.074;2023-04-03T14:08:54;100223.87;;;14.23;31.28
64792;BME280;51226;47.504;19.074;2023-04-03T14:12:05;100220.59;;;14.35;31.22
64792;BME280;51226;47.504;19.074;2023-04-03T14:15:26;100217.53;;;14.56;30.91
64792;BME280;51226;47.504;19.074;2023-04-03T14:18:30;100220.03;;;14.50;31.17
64792;BME280;51226;47.504;19.074;2023-04-03T14:21:33;100219.38;;;14.60;30.67
64792;BME280;51226;47.504;19.074;2023-04-03T14:24:35;100210.63;;;14.59;30.68
64792;BME280;51226;47.504;19.074;2023-04-03T14:27:41;100206.06;;;14.51;30.47
64792;BME280;51226;47.504;19.074;2023-04-03T14:30:45;100219.56;;;14.26;31.03
64792;BME280;51226;47.504;19.074;2023-04-03T14:33:49;100215.16;;;14.24;31.94
64792;BME280;51226;47.504;19.074;2023-04-03T14:36:52;100215.62;;;14.04;31.87
64792;BME280;51226;47.504;19.074;2023-04-03T14:39:56;100217.31;;;14.02;31.36
64792;BME280;51226;47.504;19.074;2023-04-03T14:42:59;100214.50;;;13.93;31.72
64792;BME280;51226;47.504;19.074;2023-04-03T14:46:02;100213.47;;;13.86;31.85
64792;BME280;51226;47.504;19.074;2023-04-03T14:49:14;100219.09;;;13.64;32.44
64792;BME280;51226;47.504;19.074;2023-04-03T14:52:28;100222.09;;;13.81;31.31
64792;BME280;51226;47.504;19.074;2023-04-03T14:55:32;100218.38;;;13.71;31.69
64792;BME280;51226;47.504;19.074;2023-04-03T14:58:35;100220.03;;;13.66;32.43
64792;BME280;51226;47.504;19.074;2023-04-03T15:01:39;100225.50;;;13.39;32.45
64792;BME280;51226;47.504;19.074;2023-04-03T15:04:42;100223.16;;;13.16;34.34
64792;BME280;51226;47.504;19.074;2023-04-03T15:07:52;100228.25;;;13.08;35.57
64792;BME280;51226;47.504;19.074;2023-04-03T15:10:56;100216.75;;;13.03;34.30
64792;BME280;51226;47.504;19.074;2023-04-03T15:14:04;100218.72;;;13.12;33.21
64792;BME280;51226;47.504;19.074;2023-04-03T15:17:08;100215.69;;;12.95;34.23
64792;BME280;51226;47.504;19.074;2023-04-03T15:20:19;100217.31;;;12.90;32.99
64792;BME280;51226;47.504;19.074;2023-04-03T15:23:22;100224.19;;;12.88;33.05
64792;BME280;51226;47.504;19.074;2023-04-03T15:26:29;100220.88;;;12.60;34.88
64792;BME280;51226;47.504;19.074;2023-04-03T15:29:32;100223.31;;;12.54;33.92
64792;BME280;51226;47.504;19.074;2023-04-03T15:32:35;100224.69;;;12.41;34.18
64792;BME280;51226;47.504;19.074;2023-04-03T15:35:38;100221.50;;;12.21;34.26
64792;BME280;51226;47.504;19.074;2023-04-03T15:38:41;100218.22;;;12.27;34.62
64792;BME280;51226;47.504;19.074;2023-04-03T15:41:44;100228.25;;;12.11;35.31
64792;BME280;51226;47.504;19.074;2023-04-03T15:44:48;100220.34;;;12.10;35.03
64792;BME280;51226;47.504;19.074;2023-04-03T15:47:51;100227.75;;;11.96;35.06
64792;BME280;51226;47.504;19.074;2023-04-03T15:50:54;100227.88;;;11.72;35.73
64792;BME280;51226;47.504;19.074;2023-04-03T15:54:00;100230.97;;;11.58;37.05
64792;BME280;51226;47.504;19.074;2023-04-03T15:57:02;100238.59;;;11.52;37.79
64792;BME280;51226;47.504;19.074;2023-04-03T16:00:06;100235.31;;;11.59;36.11
64792;BME280;51226;47.504;19.074;2023-04-03T16:03:12;100231.69;;;11.54;36.89
64792;BME280;51226;47.504;19.074;2023-04-03T16:06:18;100232.44;;;11.50;36.27
64792;BME280;51226;47.504;19.074;2023-04-03T16:09:21;100238.47;;;11.49;36.60
64792;BME280;51226;47.504;19.074;2023-04-03T16:12:24;100235.97;;;11.52;36.19
64792;BME280;51226;47.504;19.074;2023-04-03T16:15:27;100235.50;;;11.37;36.27
64792;BME280;51226;47.504;19.074;2023-04-03T16:18:30;100243.22;;;11.34;36.57
64792;BME280;51226;47.504;19.074;2023-04-03T16:21:33;100241.44;;;11.32;35.74
64792;BME280;51226;47.504;19.074;2023-04-03T16:24:36;100241.53;;;11.36;35.77
64792;BME280;51226;47.504;19.074;2023-04-03T16:27:40;100245.69;;;11.29;35.92
64792;BME280;51226;47.504;19.074;2023-04-03T16:30:44;100245.34;;;11.18;36.38
64792;BME280;51226;47.504;19.074;2023-04-03T16:33:48;100259.81;;;11.08;35.41
64792;BME280;51226;47.504;19.074;2023-04-03T16:36:51;100250.06;;;11.03;35.32
64792;BME280;51226;47.504;19.074;2023-04-03T16:39:55;100274.41;;;11.03;35.03
64792;BME280;51226;47.504;19.074;2023-04-03T16:42:58;100272.28;;;10.91;34.95
64792;BME280;51226;47.504;19.074;2023-04-03T16:46:01;100277.34;;;10.63;35.58
64792;BME280;51226;47.504;19.074;2023-04-03T16:49:05;100283.09;;;10.52;36.26
64792;BME280;51226;47.504;19.074;2023-04-03T16:52:08;100289.94;;;10.50;35.82
64792;BME280;51226;47.504;19.074;2023-04-03T16:55:11;100305.94;;;10.60;35.20
64792;BME280;51226;47.504;19.074;2023-04-03T16:58:13;100304.31;;;10.39;35.33
64792;BME280;51226;47.504;19.074;2023-04-03T17:01:18;100308.41;;;10.32;35.60
64792;BME280;51226;47.504;19.074;2023-04-03T17:04:21;100318.87;;;10.34;35.43
64792;BME280;51226;47.504;19.074;2023-04-03T17:07:25;100318.37;;;10.22;35.70
64792;BME280;51226;47.504;19.074;2023-04-03T17:10:28;100339.09;;;10.18;35.25
64792;BME280;51226;47.504;19.074;2023-04-03T17:13:31;100352.97;;;9.95;35.11
64792;BME280;51226;47.504;19.074;2023-04-03T17:16:36;100356.09;;;9.86;35.61
64792;BME280;51226;47.504;19.074;2023-04-03T17:19:40;100359.50;;;9.85;35.39
64792;BME280;51226;47.504;19.074;2023-04-03T17:22:44;100374.59;;;9.71;35.11
64792;BME280;51226;47.504;19.074;2023-04-03T17:25:47;100379.97;;;9.55;35.80
64792;BME280;51226;47.504;19.074;2023-04-03T17:28:50;100388.72;;;9.36;36.01
64792;BME280;51226;47.504;19.074;2023-04-03T17:31:54;100394.09;;;9.40;36.16